Time;durP1;ratioP1;P1;durP2;ratioP2;P2;SDS_P1;SDS_P2;PMS_P1;PMS_P2;Temp;Humidity;BMP_temperature;BMP_pressure;BME280_temperature;BME280_humidity;BME280_pressure;Samples;Min_cycle;Max_cycle;Signal;HPM_P1;HPM_P2
2021/03/29 00:00:08;;;;;;;13.20;11.90;;;;;;;6.85;72.01;101122.13;1677705;84;21204;-79
2021/03/29 00:02:35;;;;;;;13.40;11.23;;;;;;;6.79;72.17;101120.39;1706146;82;21203;-82
2021/03/29 00:05:05;;;;;;;11.57;10.37;;;;;;;6.83;72.17;101118.30;1706434;83;21160;-82
2021/03/29 00:07:33;;;;;;;11.93;10.73;;;;;;;6.95;71.67;101121.59;1704508;82;21334;-79
2021/03/29 00:10:05;;;;;;;13.37;12.03;;;;;;;6.95;71.37;101116.29;1708938;83;21737;-80
2021/03/29 00:12:35;;;;;;;12.77;11.43;;;;;;;6.85;71.53;101120.80;1698989;81;21176;-80
2021/03/29 00:15:06;;;;;;;10.93;9.83;;;;;;;6.79;71.58;101119.57;1707731;83;21259;-78
2021/03/29 00:17:38;;;;;;;11.17;10.07;;;;;;;6.76;71.74;101124.67;1701073;83;21551;-81
2021/03/29 00:20:18;;;;;;;9.70;8.80;;;;;;;6.83;71.56;101120.45;1695350;83;21595;-78
2021/03/29 00:22:46;;;;;;;12.00;10.80;;;;;;;6.82;71.58;101124.09;1695514;82;21495;-79
2021/03/29 00:25:16;;;;;;;13.53;10.97;;;;;;;6.44;71.58;101077.34;1696534;83;21192;-78
2021/03/29 00:27:44;;;;;;;10.47;9.37;;;;;;;6.71;71.63;101130.89;1681050;84;21168;-78
2021/03/29 00:30:17;;;;;;;10.07;9.07;;;;;;;6.68;71.81;101129.84;1678441;84;21338;-77
2021/03/29 00:32:46;;;;;;;11.40;10.30;;;;;;;6.73;71.80;101136.88;1665758;84;21208;-79
2021/03/29 00:35:15;;;;;;;13.10;10.13;;;;;;;6.72;71.59;101140.49;1652772;84;21124;-78
2021/03/29 00:37:45;;;;;;;13.87;11.13;;;;;;;6.64;71.95;101139.06;1681335;84;21171;-78
2021/03/29 00:40:13;;;;;;;10.90;9.40;;;;;;;6.56;72.39;101136.30;1679326;84;21654;-79
2021/03/29 00:42:42;;;;;;;13.67;10.53;;;;;;;6.62;72.04;101140.52;1680987;84;21310;-79
2021/03/29 00:45:15;;;;;;;12.53;11.27;;;;;;;6.70;71.81;101146.92;1665198;84;21154;-78
2021/03/29 00:47:44;;;;;;;13.07;10.50;;;;;;;6.65;72.03;101147.83;1681016;84;21149;-78
2021/03/29 00:50:19;;;;;;;12.10;10.83;;;;;;;6.60;72.05;101152.25;1680848;83;21661;-79
2021/03/29 00:52:50;;;;;;;11.12;9.95;;;;;;;6.53;72.34;101151.14;1673885;85;21336;-83
2021/03/29 00:55:20;;;;;;;10.97;9.87;;;;;;;6.63;71.99;101154.63;1704695;82;21210;-78
2021/03/29 00:57:49;;;;;;;10.77;9.67;;;;;;;6.47;71.79;101118.11;1683485;84;21226;-79
2021/03/29 01:00:30;;;;;;;10.00;9.03;;;;;;;6.64;71.92;101150.98;1656294;84;21495;-82
2021/03/29 01:02:57;;;;;;;9.57;8.57;;;;;;;6.57;72.18;101145.90;1654929;85;21435;-79
2021/03/29 01:05:24;;;;;;;10.20;9.20;;;;;;;6.59;72.21;101157.19;1656976;85;21452;-81
2021/03/29 01:07:53;;;;;;;10.20;8.40;;;;;;;6.65;71.88;101153.13;1659394;85;21204;-79
2021/03/29 01:10:21;;;;;;;10.63;9.10;;;;;;;6.67;71.88;101152.50;1659881;83;21224;-79
2021/03/29 01:12:49;;;;;;;9.53;8.60;;;;;;;6.66;71.76;101152.17;1661123;85;21087;-79
2021/03/29 01:15:20;;;;;;;10.47;9.37;;;;;;;6.64;71.74;101148.33;1653265;85;21360;-79
2021/03/29 01:17:50;;;;;;;10.10;9.10;;;;;;;6.58;71.90;101160.33;1656368;85;21249;-78
2021/03/29 01:20:34;;;;;;;9.63;8.70;;;;;;;6.63;71.96;101159.92;1656536;85;21163;-80
2021/03/29 01:23:03;;;;;;;12.20;9.90;;;;;;;6.58;71.80;101165.63;1595661;88;21256;-80
2021/03/29 01:25:54;;;;;;;10.10;9.10;;;;;;;6.49;72.13;101168.30;1645653;85;21173;-81
2021/03/29 01:28:26;;;;;;;9.60;8.60;;;;;;;6.42;72.30;101178.14;1668874;85;21180;-80
2021/03/29 01:30:53;;;;;;;10.53;9.20;;;;;;;6.48;72.38;101176.73;1656393;85;21336;-82
2021/03/29 01:33:22;;;;;;;8.80;8.00;;;;;;;6.54;71.96;101177.48;1667671;84;21214;-82
2021/03/29 01:35:59;;;;;;;9.37;8.43;;;;;;;6.49;72.16;101177.07;1652006;85;21174;-80
2021/03/29 01:38:31;;;;;;;8.13;7.45;;;;;;;6.47;72.21;101177.70;1620274;85;21383;-81
2021/03/29 01:40:59;;;;;;;8.93;8.03;;;;;;;6.48;72.21;101179.85;1672081;84;21749;-81
2021/03/29 01:43:27;;;;;;;8.07;6.57;;;;;;;6.52;72.25;101172.83;1674788;84;21235;-81
2021/03/29 01:45:57;;;;;;;9.13;8.23;;;;;;;6.65;71.98;101180.95;1688778;84;22005;-80
2021/03/29 01:48:25;;;;;;;9.63;8.63;;;;;;;6.67;71.75;101176.34;1673605;84;21328;-84
2021/03/29 01:50:53;;;;;;;9.23;7.83;;;;;;;6.58;71.90;101184.17;1675056;84;21328;-81
2021/03/29 01:53:27;;;;;;;10.93;9.73;;;;;;;6.53;71.96;101173.66;1644400;85;21664;-80
2021/03/29 01:55:55;;;;;;;8.77;7.83;;;;;;;6.49;72.15;101176.24;1675478;84;21151;-81
2021/03/29 01:58:22;;;;;;;7.93;7.13;;;;;;;6.54;72.02;101180.64;1675705;84;21297;-81
2021/03/29 02:00:54;;;;;;;10.50;8.53;;;;;;;6.55;71.99;101180.47;1667141;84;21171;-81
2021/03/29 02:03:25;;;;;;;8.67;7.77;;;;;;;6.51;72.17;101173.79;1646087;86;21217;-79
2021/03/29 02:05:52;;;;;;;8.67;7.77;;;;;;;6.46;72.35;101177.84;1673833;85;21400;-78
2021/03/29 02:08:22;;;;;;;9.03;7.37;;;;;;;6.46;72.23;101191.08;1655747;84;21212;-79
2021/03/29 02:10:52;;;;;;;10.13;9.07;;;;;;;6.57;72.01;101185.63;1644325;85;21933;-78
2021/03/29 02:13:25;;;;;;;10.90;9.40;;;;;;;6.60;71.88;101190.16;1669397;81;21412;-81
2021/03/29 02:16:01;;;;;;;12.23;10.93;;;;;;;6.47;72.22;101190.12;1675155;84;21171;-81
2021/03/29 02:18:36;;;;;;;12.53;10.10;;;;;;;6.38;72.35;101201.88;1673792;84;21227;-80
2021/03/29 02:21:07;;;;;;;9.90;8.60;;;;;;;6.35;72.83;101192.91;1657082;84;21293;-80
2021/03/29 02:23:36;;;;;;;14.17;10.60;;;;;;;6.43;72.67;101194.86;1680060;83;21900;-84
2021/03/29 02:26:05;;;;;;;13.80;12.27;;;;;;;6.36;72.87;101199.86;1692482;83;21188;-81
2021/03/29 02:28:33;;;;;;;13.70;11.67;;;;;;;6.27;72.99;101195.40;1672302;85;21136;-79
2021/03/29 02:31:01;;;;;;;12.83;10.97;;;;;;;6.23;73.14;101204.13;1675577;84;21669;-80
2021/03/29 02:33:31;;;;;;;9.90;8.90;;;;;;;6.27;73.33;101202.52;1666332;82;21024;-80
2021/03/29 02:35:58;;;;;;;12.40;11.03;;;;;;;6.06;72.97;101148.39;1672182;83;21209;-81
2021/03/29 02:38:26;;;;;;;12.47;11.07;;;;;;;6.38;72.77;101213.80;1672949;84;21322;-81
2021/03/29 02:40:55;;;;;;;11.63;10.43;;;;;;;6.35;72.88;101214.59;1671888;84;21168;-79
2021/03/29 02:43:23;;;;;;;14.43;12.30;;;;;;;6.29;73.25;101209.36;1674240;85;21196;-82
2021/03/29 02:45:55;;;;;;;12.13;10.00;;;;;;;6.33;72.96;101217.84;1674294;83;21554;-79
2021/03/29 02:48:27;;;;;;;12.57;9.13;;;;;;;6.42;72.83;101206.41;1674458;84;21173;-77
2021/03/29 02:50:58;;;;;;;12.07;10.57;;;;;;;6.35;73.02;101205.33;1673796;84;21210;-81
2021/03/29 02:53:31;;;;;;;16.13;11.07;;;;;;;6.30;73.08;101214.16;1674284;84;21230;-79
2021/03/29 02:56:10;;;;;;;13.03;10.50;;;;;;;6.21;73.45;101214.00;1665896;84;21053;-80
2021/03/29 02:58:41;;;;;;;11.77;9.30;;;;;;;6.22;73.37;101224.13;1674170;84;21958;-79
2021/03/29 03:01:12;;;;;;;11.93;10.63;;;;;;;6.24;73.52;101226.97;1662059;85;21519;-78
2021/03/29 03:03:42;;;;;;;11.93;9.63;;;;;;;6.20;73.42;101228.72;1646004;85;21188;-78
2021/03/29 03:06:10;;;;;;;12.57;10.13;;;;;;;6.19;73.67;101225.71;1655029;85;21302;-80
2021/03/29 03:08:38;;;;;;;10.60;9.37;;;;;;;6.20;73.62;101230.05;1639212;85;21261;-77
2021/03/29 03:11:11;;;;;;;10.20;9.10;;;;;;;6.24;73.64;101227.47;1653590;85;21181;-80
2021/03/29 03:13:42;;;;;;;11.20;9.70;;;;;;;6.34;73.26;101230.11;1673817;84;21187;-81
2021/03/29 03:16:10;;;;;;;11.83;9.67;;;;;;;6.37;73.08;101232.50;1672269;85;21187;-79
2021/03/29 03:18:39;;;;;;;11.23;9.57;;;;;;;6.37;73.10;101244.41;1671661;82;21163;-79
2021/03/29 03:21:07;;;;;;;9.87;8.87;;;;;;;6.33;73.13;101240.34;1667586;85;21331;-81
2021/03/29 03:23:35;;;;;;;10.70;8.33;;;;;;;6.21;73.47;101248.41;1674381;84;21060;-80
2021/03/29 03:26:02;;;;;;;10.37;9.30;;;;;;;6.29;73.29;101258.34;1677039;84;21657;-82
2021/03/29 03:28:29;;;;;;;9.67;8.67;;;;;;;6.33;73.07;101245.64;1671358;85;21200;-78
2021/03/29 03:30:58;;;;;;;8.67;7.77;;;;;;;6.28;73.29;101248.72;1675787;84;21187;-80
2021/03/29 03:33:29;;;;;;;11.57;9.80;;;;;;;6.25;73.42;101242.36;1664481;83;21041;-81
2021/03/29 03:35:57;;;;;;;9.93;8.03;;;;;;;6.21;73.42;101246.27;1672112;84;21230;-81
2021/03/29 03:38:28;;;;;;;11.03;8.17;;;;;;;6.28;73.28;101256.66;1678986;84;21212;-81
2021/03/29 03:41:03;;;;;;;9.50;8.50;;;;;;;6.34;73.16;101253.45;1680110;84;21174;-81
2021/03/29 03:43:36;;;;;;;10.48;9.38;;;;;;;6.32;73.13;101265.99;1646679;85;21194;-81
2021/03/29 03:46:17;;;;;;;10.23;8.03;;;;;;;6.25;73.18;101260.89;1642260;85;21033;-81
2021/03/29 03:48:45;;;;;;;10.33;8.30;;;;;;;6.18;73.63;101266.41;1643201;86;21187;-80
2021/03/29 03:51:13;;;;;;;10.60;8.37;;;;;;;6.22;73.62;101271.78;1673349;84;21182;-79
2021/03/29 03:53:41;;;;;;;9.13;8.07;;;;;;;6.28;73.28;101272.55;1668800;84;21198;-78
2021/03/29 03:56:09;;;;;;;11.63;9.03;;;;;;;6.22;73.39;101275.25;1674286;84;21150;-81
2021/03/29 03:58:37;;;;;;;10.80;8.57;;;;;;;6.14;73.38;101279.55;1672174;85;21361;-81
2021/03/29 04:01:07;;;;;;;8.47;7.33;;;;;;;6.06;73.65;101274.11;1670970;83;21633;-80
2021/03/29 04:03:37;;;;;;;9.50;7.03;;;;;;;6.09;73.82;101282.61;1675133;85;21419;-80
2021/03/29 04:06:06;;;;;;;9.13;7.27;;;;;;;6.18;73.61;101278.33;1675339;85;21306;-80
2021/03/29 04:08:34;;;;;;;9.23;7.83;;;;;;;6.20;73.55;101282.99;1673808;85;21183;-80
2021/03/29 04:11:03;;;;;;;9.27;7.27;;;;;;;5.96;73.52;101252.42;1674334;85;21216;-82
2021/03/29 04:13:31;;;;;;;7.77;6.80;;;;;;;6.09;73.55;101292.38;1669228;85;21195;-82
2021/03/29 04:16:04;;;;;;;7.73;6.53;;;;;;;6.08;73.55;101289.36;1662950;84;21850;-80
2021/03/29 04:18:33;;;;;;;8.13;7.03;;;;;;;6.08;73.57;101280.92;1672818;84;21172;-82
2021/03/29 04:21:04;;;;;;;10.17;8.47;;;;;;;6.04;73.54;101280.85;1677124;84;21736;-81
2021/03/29 04:23:32;;;;;;;9.40;6.70;;;;;;;5.98;73.62;101286.70;1681659;84;21554;-81
2021/03/29 04:26:02;;;;;;;7.87;6.73;;;;;;;6.00;73.62;101290.87;1667092;85;21317;-80
2021/03/29 04:28:29;;;;;;;7.60;6.80;;;;;;;6.10;73.38;101298.00;1677399;84;21410;-81
2021/03/29 04:30:56;;;;;;;9.60;8.10;;;;;;;6.01;73.62;101301.82;1699243;83;21342;-80
2021/03/29 04:33:24;;;;;;;11.67;8.23;;;;;;;5.86;74.08;101303.14;1677064;84;21167;-83
2021/03/29 04:35:53;;;;;;;13.80;8.20;;;;;;;5.87;74.00;101301.32;1666060;84;21361;-80
2021/03/29 04:38:20;;;;;;;;;;;;;;;5.97;73.78;101303.06;1694184;84;21367;-81
2021/03/29 04:40:47;;;;;;;15.58;10.08;;;;;;;5.94;73.76;101306.44;1688233;84;20224;-82
2021/03/29 04:43:14;;;;;;;11.97;9.30;;;;;;;5.82;74.16;101307.00;1684513;84;21351;-80
2021/03/29 04:45:41;;;;;;;13.00;9.53;;;;;;;5.75;74.55;101316.46;1703019;83;21104;-82
2021/03/29 04:48:09;;;;;;;13.33;8.37;;;;;;;5.79;74.32;101314.73;1701348;83;21749;-80
2021/03/29 04:50:36;;;;;;;13.17;10.67;;;;;;;5.86;74.35;101315.05;1701294;83;21219;-80
2021/03/29 04:53:04;;;;;;;12.90;10.43;;;;;;;5.81;74.40;101322.53;1689582;83;21694;-81
2021/03/29 04:55:31;;;;;;;16.07;10.67;;;;;;;5.77;74.43;101321.13;1679907;83;21065;-81
2021/03/29 04:57:58;;;;;;;13.07;10.27;;;;;;;5.75;74.49;101320.43;1685101;83;21142;-81
2021/03/29 05:00:25;;;;;;;13.43;9.80;;;;;;;5.83;74.28;101323.23;1687469;83;21242;-83
2021/03/29 05:02:55;;;;;;;14.03;10.43;;;;;;;5.94;73.98;101316.52;1672132;84;21191;-84
2021/03/29 05:05:22;;;;;;;14.40;11.53;;;;;;;5.93;73.96;101324.59;1673487;84;21180;-83
2021/03/29 05:07:50;;;;;;;15.87;10.47;;;;;;;5.87;74.13;101328.61;1699077;83;21491;-81
2021/03/29 05:10:17;;;;;;;;;;;;;;;5.85;74.31;101331.87;1692983;84;21310;-79
2021/03/29 05:12:44;;;;;;;13.58;11.10;;;;;;;5.86;74.25;101330.92;1656056;84;20208;-82
2021/03/29 05:15:14;;;;;;;15.70;12.57;;;;;;;5.92;74.00;101329.55;1647037;85;21179;-81
2021/03/29 05:17:41;;;;;;;14.77;12.23;;;;;;;5.95;73.99;101331.91;1677612;84;21187;-84
2021/03/29 05:20:09;;;;;;;23.97;13.37;;;;;;;5.97;73.90;101332.64;1683739;80;21233;-82
2021/03/29 05:22:37;;;;;;;15.27;12.27;;;;;;;5.96;73.84;101333.14;1691424;82;21057;-83
2021/03/29 05:25:06;;;;;;;17.97;13.07;;;;;;;5.96;74.01;101339.75;1712147;82;21184;-82
2021/03/29 05:27:33;;;;;;;17.80;12.27;;;;;;;6.11;73.78;101337.58;1706135;82;21795;-81
2021/03/29 05:30:05;;;;;;;19.97;13.63;;;;;;;6.17;73.29;101342.81;1708628;82;21305;-82
2021/03/29 05:32:32;;;;;;;16.27;12.53;;;;;;;6.10;73.52;101344.32;1708394;82;21168;-81
2021/03/29 05:35:02;;;;;;;21.77;14.90;;;;;;;6.01;73.66;101352.11;1660914;82;21867;-80
2021/03/29 05:37:30;;;;;;;17.20;12.77;;;;;;;6.00;73.76;101350.42;1651929;84;21204;-77
2021/03/29 05:39:59;;;;;;;16.17;12.80;;;;;;;6.06;73.74;101358.80;1693380;84;21176;-80
2021/03/29 05:42:30;;;;;;;20.87;14.50;;;;;;;6.05;73.85;101359.30;1671884;84;21349;-79
2021/03/29 05:45:09;;;;;;;27.67;15.17;;;;;;;6.01;73.76;101361.38;1669611;84;21192;-81
2021/03/29 05:47:38;;;;;;;22.13;14.57;;;;;;;5.94;73.95;101362.84;1659486;84;21212;-79
2021/03/29 05:50:09;;;;;;;15.67;12.60;;;;;;;6.03;73.55;101370.02;1666801;84;21205;-80
2021/03/29 05:52:36;;;;;;;18.83;14.20;;;;;;;6.03;73.56;101373.16;1667682;84;22358;-78
2021/03/29 05:55:08;;;;;;;19.43;14.23;;;;;;;5.93;74.00;101377.02;1667763;84;21401;-77
2021/03/29 05:57:42;;;;;;;14.57;12.53;;;;;;;5.87;74.12;101384.67;1651338;85;21198;-78
2021/03/29 06:00:32;;;;;;;24.07;16.10;;;;;;;5.91;74.22;101382.94;1686888;83;21165;-80
2021/03/29 06:03:33;;;;;;;19.20;14.50;;;;;;;5.89;74.33;101386.20;1608487;88;21988;-78
2021/03/29 06:06:14;;;;;;;19.97;15.67;;;;;;;5.77;74.56;101392.56;1668090;86;21189;-79
2021/03/29 06:08:50;;;;;;;20.27;16.50;;;;;;;5.86;74.41;101399.72;1685493;85;21188;-81
2021/03/29 06:11:31;;;;;;;16.33;13.40;;;;;;;5.93;74.22;101398.20;1651311;85;21176;-78
2021/03/29 06:14:19;;;;;;;20.27;14.27;;;;;;;5.91;74.26;101405.43;1650379;85;22010;-77
2021/03/29 06:17:09;;;;;;;19.53;15.57;;;;;;;5.89;74.33;101408.70;1670833;84;21627;-77
2021/03/29 06:19:53;;;;;;;19.33;15.17;;;;;;;5.94;74.20;101404.34;1672702;84;21745;-79
2021/03/29 06:22:33;;;;;;;21.90;17.13;;;;;;;6.01;73.76;101418.27;1652423;84;21183;-86
2021/03/29 06:25:21;;;;;;;19.67;14.33;;;;;;;5.88;74.09;101412.33;1676022;83;21193;-82
2021/03/29 06:27:57;;;;;;;19.92;15.00;;;;;;;5.75;74.67;101415.67;1691403;83;21156;-82
2021/03/29 06:30:35;;;;;;;19.98;14.87;;;;;;;5.83;74.58;101418.00;1687338;83;21273;-85
2021/03/29 06:33:15;;;;;;;18.13;13.67;;;;;;;5.94;74.29;101416.25;1653188;84;21316;-82
2021/03/29 06:35:52;;;;;;;22.73;15.90;;;;;;;5.86;74.08;101397.07;1694654;83;21302;-81
2021/03/29 06:38:25;;;;;;;;;;;;;;;5.99;74.06;101429.48;1651506;85;21233;-80
2021/03/29 06:41:02;;;;;;;20.13;15.83;;;;;;;5.95;73.87;101425.42;1682226;84;20282;-78
2021/03/29 06:43:41;;;;;;;19.97;15.33;;;;;;;5.92;73.98;101428.78;1682592;84;21341;-82
2021/03/29 06:46:27;;;;;;;21.50;16.97;;;;;;;5.89;74.34;101439.62;1713739;83;21181;-85
2021/03/29 06:48:58;;;;;;;21.03;16.00;;;;;;;5.83;74.39;101439.66;1702062;83;21940;-83
2021/03/29 06:51:34;;;;;;;19.77;15.27;;;;;;;5.80;74.77;101436.80;1705220;84;21259;-80
2021/03/29 06:54:07;;;;;;;20.77;15.88;;;;;;;5.94;74.42;101441.40;1683845;84;21210;-82
2021/03/29 06:56:44;;;;;;;22.70;17.03;;;;;;;6.08;74.07;101440.23;1747443;81;21181;-81
2021/03/29 07:01:55;;;;;;;22.93;16.87;;;;;;;6.12;73.86;101439.86;1688642;79;23147;-81
2021/03/29 07:04:26;;;;;;;21.60;16.77;;;;;;;6.04;73.86;101443.13;1634638;86;21210;-81
2021/03/29 07:06:54;;;;;;;20.73;15.30;;;;;;;6.13;73.76;101445.98;1623715;87;21229;-81
2021/03/29 07:09:21;;;;;;;19.30;15.97;;;;;;;6.18;73.69;101455.20;1620357;87;22226;-80
2021/03/29 07:11:49;;;;;;;24.20;18.27;;;;;;;6.19;73.76;101454.71;1632999;85;21539;-82
2021/03/29 07:14:20;;;;;;;20.63;15.13;;;;;;;6.22;73.58;101455.78;1653516;85;21603;-81
2021/03/29 07:16:50;;;;;;;23.07;16.30;;;;;;;6.27;73.49;101454.88;1655421;85;21668;-82
2021/03/29 07:19:17;;;;;;;23.13;16.80;;;;;;;6.39;73.06;101460.45;1631606;86;21281;-82
2021/03/29 07:21:45;;;;;;;25.70;18.07;;;;;;;6.40;73.04;101475.38;1650429;85;21216;-81
2021/03/29 07:24:14;;;;;;;20.70;16.73;;;;;;;6.41;72.59;101468.27;1673300;83;21181;-82
2021/03/29 07:26:54;;;;;;;20.80;17.53;;;;;;;6.38;72.53;101468.52;1675650;84;21561;-82
2021/03/29 07:31:07;;;;;;;22.10;16.77;;;;;;;6.45;72.27;101472.31;1804844;78;22891;-81
2021/03/29 07:33:54;;;;;;;22.47;17.90;;;;;;;6.30;72.69;101475.80;1757251;80;21167;-81
2021/03/29 07:36:43;;;;;;;21.93;16.97;;;;;;;6.20;73.11;101477.09;1696329;83;21167;-81
2021/03/29 07:39:13;;;;;;;24.33;17.77;;;;;;;6.20;73.27;101483.70;1685298;83;21164;-81
2021/03/29 07:41:40;;;;;;;32.47;22.80;;;;;;;6.24;73.02;101489.09;1689055;83;21317;-81
2021/03/29 07:44:19;;;;;;;25.83;18.53;;;;;;;6.24;73.13;101486.94;1698544;83;21175;-83
2021/03/29 07:46:48;;;;;;;21.47;16.67;;;;;;;6.21;73.07;101488.02;1680439;84;21229;-84
2021/03/29 07:49:46;;;;;;;25.50;18.53;;;;;;;6.32;72.96;101489.75;1680551;84;21184;-81
2021/03/29 07:52:28;;;;;;;;;;;;;;;6.48;72.65;101493.25;1681115;84;21153;-82
2021/03/29 07:54:58;;;;;;;21.63;16.27;;;;;;;6.52;72.53;101498.63;1647104;86;20184;-82
2021/03/29 07:57:47;;;;;;;21.03;15.63;;;;;;;6.46;72.56;101496.52;1639225;86;21160;-85
2021/03/29 08:00:30;;;;;;;19.67;14.47;;;;;;;6.50;72.71;101499.71;1633898;87;21224;-85
2021/03/29 08:03:08;;;;;;;22.07;14.93;;;;;;;6.65;72.51;101503.70;1659802;86;21208;-83
2021/03/29 08:05:51;;;;;;;23.50;17.00;;;;;;;6.90;71.57;101493.09;1754591;79;23121;-82
2021/03/29 08:08:32;;;;;;;22.63;17.57;;;;;;;6.90;71.45;101494.92;1730093;82;21302;-84
2021/03/29 08:11:13;;;;;;;19.67;15.67;;;;;;;6.91;71.59;101500.55;1736239;82;21160;-81
2021/03/29 08:13:53;;;;;;;22.07;16.87;;;;;;;7.00;71.24;101504.55;1728798;82;21109;-88
2021/03/29 08:16:28;;;;;;;18.80;16.10;;;;;;;7.08;71.03;101508.33;1696067;82;21169;-88
2021/03/29 08:19:18;;;;;;;23.87;16.47;;;;;;;7.17;70.46;101512.81;1695983;83;21192;-90
2021/03/29 08:22:02;;;;;;;23.90;18.17;;;;;;;7.31;70.14;101516.88;1713031;83;21369;-90
2021/03/29 08:24:43;;;;;;;25.70;16.70;;;;;;;7.29;70.15;101514.84;1709130;82;21121;-90
2021/03/29 08:27:22;;;;;;;22.97;16.53;;;;;;;7.27;69.99;101520.78;1702929;82;21373;-88
2021/03/29 08:29:53;;;;;;;18.53;15.07;;;;;;;7.26;69.93;101523.93;1705003;83;21189;-87
2021/03/29 08:32:34;;;;;;;21.97;16.40;;;;;;;7.25;69.88;101524.89;1688563;81;21125;-92
2021/03/29 08:35:13;;;;;;;21.23;15.13;;;;;;;7.39;69.49;101530.30;1655461;81;21080;-90
2021/03/29 08:37:50;;;;;;;21.37;16.30;;;;;;;7.43;69.16;101529.05;1633652;85;21369;-88
2021/03/29 08:40:32;;;;;;;23.07;18.43;;;;;;;7.35;69.28;101528.41;1609996;86;21265;-90
2021/03/29 08:43:10;;;;;;;26.90;19.37;;;;;;;7.28;69.55;101534.41;1633614;85;21375;-92
2021/03/29 08:45:38;;;;;;;24.70;19.33;;;;;;;7.27;69.73;101530.06;1620243;86;21516;-88
2021/03/29 08:48:07;;;;;;;32.47;21.03;;;;;;;7.30;69.35;101532.45;1606031;88;21357;-90
2021/03/29 08:50:40;;;;;;;26.30;16.97;;;;;;;7.37;69.16;101532.26;1618467;86;21336;-87
2021/03/29 08:53:11;;;;;;;24.57;18.93;;;;;;;7.39;68.89;101533.78;1615133;86;21234;-89
2021/03/29 08:55:42;;;;;;;24.80;18.60;;;;;;;7.37;69.14;101530.44;1601415;84;21140;-91
2021/03/29 08:58:11;;;;;;;29.10;20.50;;;;;;;7.41;68.98;101528.34;1673061;83;21161;-91
2021/03/29 09:00:43;;;;;;;24.87;19.37;;;;;;;7.49;68.97;101535.61;1661882;83;21094;-91
2021/03/29 09:03:19;;;;;;;28.33;19.13;;;;;;;7.58;68.73;101532.95;1632942;87;21356;-91
2021/03/29 09:05:56;;;;;;;25.17;19.90;;;;;;;7.82;67.87;101538.34;1622464;86;21162;-90
2021/03/29 09:08:25;;;;;;;22.80;17.50;;;;;;;7.90;67.35;101538.46;1593723;88;21378;-90
2021/03/29 09:11:00;;;;;;;25.03;20.37;;;;;;;7.96;67.34;101542.37;1614879;88;21279;-91
2021/03/29 09:13:29;;;;;;;25.90;19.60;;;;;;;8.05;66.65;101546.00;1696958;83;21157;-92
2021/03/29 09:15:58;;;;;;;22.30;19.07;;;;;;;8.06;66.81;101541.88;1690057;83;21685;-89
2021/03/29 09:18:33;;;;;;;31.23;22.57;;;;;;;8.12;66.71;101541.30;1659488;84;21624;-94
2021/03/29 09:21:06;;;;;;;24.67;19.13;;;;;;;8.30;66.12;101552.02;1663041;85;21204;-87
2021/03/29 09:23:33;;;;;;;28.60;20.17;;;;;;;8.19;65.34;101508.36;1669469;84;21050;-90
2021/03/29 09:26:02;;;;;;;24.33;19.73;;;;;;;8.50;65.38;101558.16;1670101;85;21700;-88
2021/03/29 09:31:22;;;;;;;22.30;19.27;;;;;;;8.57;64.88;101562.41;1672786;84;21188;-88
2021/03/29 09:34:13;;;;;;;29.85;26.00;;;;;;;8.70;64.52;101560.27;1831678;76;28179;-87
2021/03/29 09:36:40;;;;;;;24.60;20.23;;;;;;;8.87;63.64;101569.29;1792566;79;21183;-90
2021/03/29 09:39:16;;;;;;;25.83;23.10;;;;;;;9.03;62.78;101569.14;1795056;79;21120;-93
2021/03/29 09:41:52;;;;;;;26.80;21.23;;;;;;;8.96;63.05;101564.89;1778999;79;21199;-91
2021/03/29 09:44:30;;;;;;;31.43;22.30;;;;;;;8.89;63.22;101563.80;1780555;80;21193;-85
2021/03/29 09:47:00;;;;;;;26.93;21.83;;;;;;;8.85;63.09;101563.25;1785190;79;21177;-90
2021/03/29 09:49:29;;;;;;;27.63;21.97;;;;;;;8.89;63.21;101562.47;1774151;79;21177;-91
2021/03/29 09:52:05;;;;;;;30.53;21.80;;;;;;;8.96;62.85;101562.23;1786543;80;21140;-90
2021/03/29 09:54:38;;;;;;;26.77;22.00;;;;;;;8.96;62.52;101561.72;1773378;79;21176;-95
2021/03/29 09:57:16;;;;;;;26.63;21.47;;;;;;;8.95;62.88;101563.23;1768922;80;21108;-90
2021/03/29 09:59:44;;;;;;;28.43;24.03;;;;;;;9.04;62.79;101561.48;1792180;79;21188;-90
2021/03/29 10:02:22;;;;;;;28.50;23.63;;;;;;;8.84;61.95;101529.69;1774813;79;21147;-94
2021/03/29 10:05:11;;;;;;;28.87;21.23;;;;;;;9.09;62.09;101565.37;1771463;79;21160;-90
2021/03/29 10:07:54;;;;;;;29.50;24.23;;;;;;;9.17;61.82;101565.95;1787520;80;21089;-91
2021/03/29 10:10:32;;;;;;;29.97;24.40;;;;;;;9.36;61.10;101559.67;1781353;79;21193;-93
2021/03/29 10:13:11;;;;;;;29.20;23.40;;;;;;;8.35;60.97;101373.11;1788979;79;21163;-94
2021/03/29 10:15:46;;;;;;;29.57;25.37;;;;;;;9.69;60.55;101563.50;1778829;79;21342;-95
2021/03/29 10:18:20;;;;;;;29.13;24.50;;;;;;;9.84;60.31;101569.13;1784040;79;21294;-89
2021/03/29 10:20:48;;;;;;;30.40;24.80;;;;;;;9.98;59.79;101569.57;1776018;80;21394;-90
2021/03/29 10:23:30;;;;;;;28.50;25.07;;;;;;;10.00;59.00;101570.25;1796197;79;21080;-92
2021/03/29 10:29:41;;;;;;;30.73;25.53;;;;;;;9.85;59.48;101576.14;1786441;79;21195;-93
2021/03/29 10:32:32;;;;;;;27.03;24.10;;;;;;;9.78;59.42;101575.08;1788963;80;21176;-92
2021/03/29 10:35:00;;;;;;;28.77;25.60;;;;;;;9.81;59.54;101581.41;1791225;78;21181;-92
2021/03/29 10:37:33;;;;;;;31.23;26.43;;;;;;;9.83;59.11;101584.78;1786876;79;21161;-94
2021/03/29 10:40:01;;;;;;;30.70;25.40;;;;;;;9.79;59.03;101586.05;1791815;79;21685;-92
2021/03/29 10:42:45;;;;;;;27.63;23.47;;;;;;;9.76;59.10;101570.40;1788259;79;21255;-95
2021/03/29 10:45:28;;;;;;;30.07;23.70;;;;;;;9.73;59.19;101580.02;1787826;80;21032;-94
2021/03/29 10:48:06;;;;;;;32.30;27.07;;;;;;;9.73;59.23;101571.52;1767929;80;21871;-93
2021/03/29 10:50:36;;;;;;;31.33;25.70;;;;;;;9.44;59.11;101531.84;1774153;79;21844;-92
2021/03/29 10:53:10;;;;;;;30.23;25.03;;;;;;;9.75;59.16;101580.70;1769036;81;21339;-94
2021/03/29 10:55:45;;;;;;;35.83;27.57;;;;;;;9.75;59.11;101576.70;1774876;80;21216;-93
2021/03/29 10:58:19;;;;;;;31.17;25.87;;;;;;;9.74;59.13;101580.38;1755761;80;21155;-93
2021/03/29 11:00:56;;;;;;;33.57;28.67;;;;;;;9.76;59.05;101581.05;1766796;79;21071;-94
2021/03/29 11:03:39;;;;;;;29.27;26.13;;;;;;;9.82;59.10;101579.10;1719280;82;21190;-94
2021/03/29 11:06:08;;;;;;;32.00;28.20;;;;;;;9.86;59.11;101579.13;1747483;80;21176;-91
2021/03/29 11:08:41;;;;;;;34.00;27.33;;;;;;;9.92;59.19;101576.35;1753190;80;21180;-95
2021/03/29 11:14:49;;;;;;;34.00;27.77;;;;;;;10.07;58.63;101573.98;1691787;83;21164;-88
2021/03/29 11:21:25;;;;;;;32.33;28.73;;;;;;;10.18;58.34;101581.72;1597442;84;21380;-90
2021/03/29 11:31:01;;;;;;;31.67;27.77;;;;;;;10.43;57.58;101580.59;1644750;85;21192;-91
2021/03/29 11:33:28;;;;;;;33.60;29.93;;;;;;;10.52;57.33;101581.81;1646438;84;21111;-91
2021/03/29 11:36:13;;;;;;;32.33;28.27;;;;;;;10.56;56.95;101577.00;1641570;85;21181;-94
2021/03/29 11:39:12;;;;;;;32.77;28.07;;;;;;;10.56;57.03;101573.00;1638984;81;21246;-90
2021/03/29 11:41:40;;;;;;;32.83;28.70;;;;;;;10.60;56.77;101577.52;1654361;84;21409;-91
2021/03/29 11:44:34;;;;;;;38.40;31.03;;;;;;;10.63;56.74;101579.89;1642278;83;21619;-95
2021/03/29 11:48:03;;;;;;;36.17;28.70;;;;;;;10.68;56.81;101578.41;1669378;83;21278;-94
2021/03/29 11:50:52;;;;;;;30.60;27.03;;;;;;;10.79;56.28;101577.78;1667769;83;21199;-93
2021/03/29 11:53:51;;;;;;;35.57;29.73;;;;;;;10.81;56.25;101579.31;1655322;84;21259;-91
2021/03/29 11:56:27;;;;;;;33.60;30.00;;;;;;;10.82;55.99;101577.48;1660086;81;21172;-93
2021/03/29 11:59:27;;;;;;;33.70;27.57;;;;;;;10.78;56.20;101580.95;1630477;83;21329;-93
2021/03/29 12:02:08;;;;;;;32.10;28.10;;;;;;;10.76;56.18;101580.80;1652902;83;21231;-95
2021/03/29 12:04:55;;;;;;;;;;;;;;;10.79;55.98;101577.28;1643744;84;21188;-91
2021/03/29 12:07:40;;;;;;;41.73;33.63;;;;;;;10.78;56.08;101588.13;1666515;84;20507;-93
2021/03/29 12:13:35;;;;;;;34.80;30.10;;;;;;;10.66;56.47;101595.08;1645317;84;21172;-92
2021/03/29 12:16:06;;;;;;;38.10;31.07;;;;;;;10.62;56.52;101595.02;1654196;83;21122;-90
2021/03/29 12:18:46;;;;;;;32.37;28.97;;;;;;;10.02;56.59;101504.34;1666958;80;21340;-94